createdAt,value
2018-04-16T00:00:03.443Z,13.20
2018-04-16T00:02:29.413Z,13.30
2018-04-16T00:04:55.413Z,13.70
2018-04-16T00:07:21.405Z,14.40
2018-04-16T00:09:47.411Z,13.40
2018-04-16T00:12:13.403Z,13.93
2018-04-16T00:14:39.427Z,13.77
2018-04-16T00:17:06.161Z,12.90
2018-04-16T00:19:32.548Z,14.77
2018-04-16T00:21:58.571Z,14.53
2018-04-16T00:24:25.314Z,14.03
2018-04-16T00:26:52.048Z,13.30
2018-04-16T00:29:18.023Z,14.60
2018-04-16T00:31:50.859Z,13.80
2018-04-16T00:34:22.928Z,13.67
2018-04-16T00:36:55.032Z,14.23
2018-04-16T00:39:27.156Z,17.70
2018-04-16T00:42:00.076Z,16.63
2018-04-16T00:44:32.145Z,15.33
2018-04-16T00:47:04.236Z,14.20
2018-04-16T00:49:36.253Z,15.37
2018-04-16T00:52:09.592Z,13.17
2018-04-16T00:54:42.534Z,13.33
2018-04-16T00:57:14.669Z,14.23
2018-04-16T00:59:47.516Z,14.40
2018-04-16T01:02:19.604Z,13.50
2018-04-16T01:04:52.050Z,13.10
2018-04-16T01:07:24.290Z,13.73
2018-04-16T01:09:56.435Z,12.60
2018-04-16T01:12:28.483Z,13.00
2018-04-16T01:15:01.323Z,13.40
2018-04-16T01:17:33.420Z,13.13
2018-04-16T01:20:05.483Z,12.37
2018-04-16T01:25:35.109Z,13.20
2018-04-16T01:28:07.211Z,13.83
2018-04-16T01:30:39.194Z,14.43
2018-04-16T01:33:11.397Z,12.70
2018-04-16T01:35:43.539Z,14.70
2018-04-16T01:38:15.772Z,12.57
2018-04-16T01:40:47.919Z,13.37
2018-04-16T01:43:19.949Z,13.70
2018-04-16T01:45:52.069Z,12.83
2018-04-16T01:48:24.137Z,13.23
2018-04-16T01:50:56.210Z,13.73
2018-04-16T01:53:29.264Z,12.83
2018-04-16T01:56:01.305Z,13.10
2018-04-16T01:58:33.456Z,15.07
2018-04-16T02:01:05.529Z,12.17
2018-04-16T02:03:37.662Z,12.47
2018-04-16T02:06:09.721Z,15.10
2018-04-16T02:08:41.812Z,15.43
2018-04-16T02:11:14.009Z,14.10
2018-04-16T02:13:46.201Z,13.83
2018-04-16T02:16:18.366Z,14.20
2018-04-16T02:18:50.557Z,13.83
2018-04-16T02:21:22.733Z,14.63
2018-04-16T02:23:54.764Z,14.27
2018-04-16T02:26:26.866Z,13.20
2018-04-16T02:28:59.145Z,13.17
2018-04-16T02:31:31.329Z,13.47
2018-04-16T02:34:04.274Z,13.77
2018-04-16T02:36:45.225Z,13.73
2018-04-16T02:39:17.444Z,13.73
2018-04-16T02:41:49.569Z,13.90
2018-04-16T02:44:22.321Z,13.10
2018-04-16T02:46:54.373Z,13.93
2018-04-16T02:49:26.487Z,15.33
2018-04-16T02:51:58.725Z,17.00
2018-04-16T02:54:30.753Z,15.97
2018-04-16T02:57:02.903Z,17.83
2018-04-16T02:59:35.038Z,19.10
2018-04-16T03:02:07.889Z,18.03
2018-04-16T03:04:40.017Z,17.67
2018-04-16T03:07:12.862Z,17.50
2018-04-16T03:09:44.892Z,19.83
2018-04-16T03:12:17.009Z,20.30
2018-04-16T03:14:49.157Z,19.10
2018-04-16T03:17:22.121Z,20.17
2018-04-16T03:19:54.240Z,19.60
2018-04-16T03:22:27.168Z,19.43
2018-04-16T03:24:59.292Z,19.30
2018-04-16T03:27:31.435Z,19.47
2018-04-16T03:30:03.714Z,20.77
2018-04-16T03:32:35.801Z,20.53
2018-04-16T03:35:07.963Z,19.53
2018-04-16T03:37:40.106Z,21.63
2018-04-16T03:40:12.214Z,20.63
2018-04-16T03:42:45.141Z,20.40
2018-04-16T03:45:17.183Z,21.90
2018-04-16T03:47:49.411Z,20.10
2018-04-16T03:50:21.561Z,19.27
2018-04-16T03:52:54.516Z,20.53
2018-04-16T03:55:23.328Z,20.07
2018-04-16T03:57:49.308Z,19.63
2018-04-16T04:00:15.337Z,19.47
2018-04-16T04:02:42.073Z,20.20
2018-04-16T04:05:08.072Z,22.07
2018-04-16T04:07:34.068Z,23.37
2018-04-16T04:10:00.080Z,24.10
2018-04-16T04:12:26.843Z,25.30
2018-04-16T04:14:53.556Z,23.07
2018-04-16T04:17:19.563Z,22.70
2018-04-16T04:19:45.588Z,23.23
2018-04-16T04:22:11.640Z,24.90
2018-04-16T04:24:50.097Z,25.27
2018-04-16T04:30:30.493Z,28.37
2018-04-16T04:32:56.480Z,28.87
2018-04-16T04:35:23.196Z,30.40
2018-04-16T04:37:49.236Z,30.27
2018-04-16T04:40:15.205Z,32.60
2018-04-16T04:42:41.920Z,26.90
2018-04-16T04:45:07.914Z,30.57
2018-04-16T04:47:34.643Z,30.00
2018-04-16T04:50:01.366Z,30.80
2018-04-16T04:52:27.353Z,30.13
2018-04-16T04:54:54.080Z,30.90
2018-04-16T04:57:20.072Z,30.53
2018-04-16T04:59:46.061Z,31.97
2018-04-16T05:02:12.823Z,30.17
2018-04-16T05:04:39.551Z,34.10
2018-04-16T05:07:05.508Z,33.33
2018-04-16T05:09:31.527Z,32.53
2018-04-16T05:11:57.508Z,33.53
2018-04-16T05:14:23.528Z,31.27
2018-04-16T05:16:50.278Z,33.90
2018-04-16T05:19:17.037Z,37.17
2018-04-16T05:21:43.827Z,34.10
2018-04-16T05:24:09.797Z,32.13
2018-04-16T05:26:35.835Z,31.17
2018-04-16T05:29:01.815Z,32.83
2018-04-16T05:31:27.782Z,31.77
2018-04-16T05:33:53.784Z,34.17
2018-04-16T05:36:19.784Z,29.90
2018-04-16T05:38:45.801Z,33.87
2018-04-16T05:41:11.794Z,30.87
2018-04-16T05:43:37.809Z,30.80
2018-04-16T05:46:03.788Z,31.10
2018-04-16T05:48:29.788Z,29.80
2018-04-16T05:50:56.508Z,30.00
2018-04-16T05:53:22.477Z,37.20
2018-04-16T05:55:48.496Z,30.60
2018-04-16T05:58:14.462Z,30.80
2018-04-16T06:00:40.482Z,33.03
2018-04-16T06:03:07.192Z,33.33
2018-04-16T06:05:33.945Z,35.00
2018-04-16T06:07:59.963Z,36.10
2018-04-16T06:10:25.919Z,44.40
2018-04-16T06:12:51.884Z,51.87
2018-04-16T06:15:17.898Z,46.33
2018-04-16T06:17:43.894Z,50.57
2018-04-16T06:20:09.912Z,53.07
2018-04-16T06:22:36.671Z,57.70
2018-04-16T06:25:03.421Z,56.13
2018-04-16T06:27:30.258Z,60.40
2018-04-16T06:29:56.181Z,65.00
2018-04-16T06:32:22.160Z,62.90
2018-04-16T06:34:48.185Z,62.37
2018-04-16T06:37:14.894Z,71.93
2018-04-16T06:39:40.909Z,71.77
2018-04-16T06:42:06.925Z,68.13
2018-04-16T06:44:32.884Z,59.73
2018-04-16T06:46:58.903Z,62.00
2018-04-16T06:49:24.892Z,68.30
2018-04-16T06:51:50.910Z,64.83
2018-04-16T06:54:16.875Z,59.77
2018-04-16T06:56:42.893Z,67.40
2018-04-16T06:59:08.916Z,67.30
2018-04-16T07:01:34.896Z,65.33
2018-04-16T07:04:01.720Z,60.90
2018-04-16T07:06:27.666Z,68.07
2018-04-16T07:08:53.676Z,62.10
2018-04-16T07:11:19.663Z,57.60
2018-04-16T07:13:46.436Z,62.90
2018-04-16T07:16:12.400Z,59.57
2018-04-16T07:18:38.399Z,57.57
2018-04-16T07:21:04.413Z,54.97
2018-04-16T07:23:31.173Z,60.57
2018-04-16T07:25:57.942Z,56.73
2018-04-16T07:28:24.660Z,56.83
2018-04-16T07:30:50.636Z,54.03
2018-04-16T07:33:16.647Z,55.00
2018-04-16T07:35:43.367Z,52.47
2018-04-16T07:38:09.384Z,49.60
2018-04-16T07:40:35.371Z,51.87
2018-04-16T07:43:01.448Z,48.90
2018-04-16T07:45:27.440Z,48.27
2018-04-16T07:47:53.486Z,48.20
2018-04-16T07:50:19.477Z,51.10
2018-04-16T07:52:45.457Z,49.73
2018-04-16T07:55:11.462Z,52.97
2018-04-16T07:57:37.452Z,55.00
2018-04-16T08:00:04.199Z,53.07
2018-04-16T08:02:30.929Z,52.60
2018-04-16T08:04:56.929Z,52.10
2018-04-16T08:07:22.931Z,48.53
2018-04-16T08:09:49.628Z,53.53
2018-04-16T08:12:16.446Z,54.23
2018-04-16T08:14:42.420Z,56.17
2018-04-16T08:17:08.465Z,55.67
2018-04-16T08:19:34.489Z,54.70
2018-04-16T08:22:00.494Z,55.27
2018-04-16T08:24:26.487Z,53.23
2018-04-16T08:26:52.492Z,55.73
2018-04-16T08:29:18.485Z,53.73
2018-04-16T08:31:45.675Z,53.77
2018-04-16T08:34:11.656Z,50.63
2018-04-16T08:36:38.392Z,51.93
2018-04-16T08:39:04.472Z,53.33
2018-04-16T08:41:30.497Z,49.20
2018-04-16T08:43:56.510Z,52.93
2018-04-16T08:46:22.536Z,52.23
2018-04-16T08:48:48.512Z,50.60
2018-04-16T08:51:14.501Z,49.83
2018-04-16T08:53:40.478Z,49.57
2018-04-16T08:56:06.481Z,53.87
2018-04-16T08:58:32.448Z,49.80
2018-04-16T09:00:58.470Z,50.53
2018-04-16T09:03:24.457Z,48.10
2018-04-16T09:05:50.460Z,47.10
2018-04-16T09:08:16.472Z,42.93
2018-04-16T09:10:42.474Z,49.00
2018-04-16T09:13:08.439Z,41.83
2018-04-16T09:15:34.461Z,43.97
2018-04-16T09:18:00.489Z,45.23
2018-04-16T09:20:26.509Z,44.77
2018-04-16T09:22:53.221Z,42.30
2018-04-16T09:25:19.233Z,41.00
2018-04-16T09:27:45.202Z,45.47
2018-04-16T09:30:11.201Z,42.10
2018-04-16T09:32:37.192Z,39.00
2018-04-16T09:35:03.185Z,39.90
2018-04-16T09:37:29.212Z,38.57
2018-04-16T09:39:55.209Z,40.33
2018-04-16T09:42:21.968Z,36.63
2018-04-16T09:44:48.821Z,34.30
2018-04-16T09:47:15.595Z,38.80
2018-04-16T09:49:41.578Z,38.87
2018-04-16T09:52:07.581Z,38.07
2018-04-16T09:54:33.576Z,38.67
2018-04-16T09:56:59.537Z,39.87
2018-04-16T09:59:25.529Z,34.63
2018-04-16T10:01:51.492Z,39.63
2018-04-16T10:04:18.288Z,39.20
2018-04-16T10:06:44.297Z,39.30
2018-04-16T10:09:11.060Z,39.17
2018-04-16T10:11:37.811Z,37.40
2018-04-16T10:14:03.805Z,36.87
2018-04-16T10:16:29.817Z,38.37
2018-04-16T10:18:55.795Z,37.07
2018-04-16T10:21:21.801Z,39.13
2018-04-16T10:23:47.805Z,40.43
2018-04-16T10:26:13.765Z,46.03
2018-04-16T10:28:39.781Z,43.40
2018-04-16T10:31:05.819Z,41.10
2018-04-16T10:33:31.819Z,44.30
2018-04-16T10:35:57.792Z,49.23
2018-04-16T10:38:23.796Z,43.13
2018-04-16T10:40:50.580Z,49.60
2018-04-16T10:43:16.543Z,42.70
2018-04-16T10:45:42.509Z,40.07
2018-04-16T10:48:08.499Z,45.13
2018-04-16T10:50:34.505Z,38.80
2018-04-16T10:53:00.488Z,40.27
2018-04-16T10:55:26.452Z,39.67
2018-04-16T10:57:52.464Z,39.50
2018-04-16T11:00:18.479Z,38.70
2018-04-16T11:02:44.472Z,39.17
2018-04-16T11:05:10.456Z,35.73
2018-04-16T11:07:36.465Z,36.10
2018-04-16T11:10:02.453Z,37.60
2018-04-16T11:12:28.437Z,36.30
2018-04-16T11:14:54.455Z,39.73
2018-04-16T11:17:21.252Z,38.07
2018-04-16T11:19:47.253Z,39.67
2018-04-16T11:22:14.011Z,40.30
2018-04-16T11:24:40.715Z,36.67
2018-04-16T11:27:06.715Z,35.50
2018-04-16T11:29:32.680Z,35.83
2018-04-16T11:31:58.735Z,35.17
2018-04-16T11:34:25.444Z,36.03
2018-04-16T11:36:51.412Z,34.33
2018-04-16T11:39:17.414Z,35.27
2018-04-16T11:41:43.404Z,35.93
2018-04-16T11:44:09.410Z,36.03
2018-04-16T11:46:35.355Z,35.87
2018-04-16T11:49:01.440Z,37.87
2018-04-16T11:51:28.161Z,36.37
2018-04-16T11:53:54.137Z,35.80
2018-04-16T11:56:20.933Z,37.50
2018-04-16T11:58:46.907Z,36.37
2018-04-16T12:01:12.900Z,37.20
2018-04-16T12:03:38.936Z,36.70
2018-04-16T12:06:04.924Z,36.50
2018-04-16T12:08:30.931Z,34.47
2018-04-16T12:10:56.908Z,36.23
2018-04-16T12:13:23.647Z,39.90
2018-04-16T12:15:49.643Z,35.77
2018-04-16T12:18:15.716Z,33.63
2018-04-16T12:20:41.695Z,34.10
2018-04-16T12:23:07.715Z,36.57
2018-04-16T12:25:34.449Z,36.57
2018-04-16T12:28:00.403Z,35.87
2018-04-16T12:30:27.149Z,36.47
2018-04-16T12:32:53.203Z,35.40
2018-04-16T12:35:19.948Z,34.60
2018-04-16T12:37:46.653Z,39.97
2018-04-16T12:40:12.690Z,37.67
2018-04-16T12:42:38.720Z,38.47
2018-04-16T12:45:04.852Z,39.27
2018-04-16T12:47:30.841Z,38.90
2018-04-16T12:49:56.833Z,41.60
2018-04-16T12:52:22.845Z,41.67
2018-04-16T12:54:48.864Z,39.90
2018-04-16T12:57:15.656Z,43.63
2018-04-16T12:59:41.628Z,45.33
2018-04-16T13:02:07.632Z,48.97
2018-04-16T13:04:33.637Z,46.97
2018-04-16T13:06:59.612Z,47.37
2018-04-16T13:09:25.631Z,48.83
2018-04-16T13:11:52.344Z,44.97
2018-04-16T13:14:18.344Z,47.83
2018-04-16T13:16:45.093Z,45.73
2018-04-16T13:19:11.095Z,47.83
2018-04-16T13:21:37.828Z,46.03
2018-04-16T13:24:03.882Z,45.30
2018-04-16T13:26:30.644Z,45.97
2018-04-16T13:28:56.617Z,47.07
2018-04-16T13:31:22.643Z,46.27
2018-04-16T13:33:48.688Z,46.20
2018-04-16T13:36:14.667Z,50.37
2018-04-16T13:38:41.377Z,45.37
2018-04-16T13:41:07.383Z,45.53
2018-04-16T13:43:33.359Z,48.30
2018-04-16T13:45:59.381Z,44.17
2018-04-16T13:48:25.368Z,45.13
2018-04-16T13:50:52.136Z,48.60
2018-04-16T13:53:18.857Z,49.70
2018-04-16T13:55:44.860Z,51.13
2018-04-16T13:58:10.829Z,47.10
2018-04-16T14:00:36.813Z,48.50
2018-04-16T14:03:02.852Z,47.07
2018-04-16T14:05:28.835Z,45.23
2018-04-16T14:07:54.853Z,48.07
2018-04-16T14:10:20.867Z,46.17
2018-04-16T14:12:46.881Z,45.87
2018-04-16T14:15:12.844Z,50.17
2018-04-16T14:17:38.862Z,46.03
2018-04-16T14:20:04.915Z,52.20
2018-04-16T14:22:30.893Z,47.87
2018-04-16T14:24:56.891Z,47.67
2018-04-16T14:27:22.919Z,44.87
2018-04-16T14:29:48.954Z,46.33
2018-04-16T14:32:14.954Z,43.93
2018-04-16T14:34:40.964Z,42.50
2018-04-16T14:37:06.956Z,40.90
2018-04-16T14:39:32.960Z,38.73
2018-04-16T14:41:58.933Z,39.93
2018-04-16T14:44:24.911Z,39.43
2018-04-16T14:46:51.681Z,37.90
2018-04-16T14:49:17.699Z,38.40
2018-04-16T14:51:43.716Z,34.33
2018-04-16T14:54:09.708Z,34.90
2018-04-16T14:56:36.457Z,36.10
2018-04-16T14:59:02.532Z,35.13
2018-04-16T15:01:28.528Z,33.60
2018-04-16T15:03:54.547Z,32.87
2018-04-16T15:06:20.539Z,32.70
2018-04-16T15:08:46.552Z,30.70
2018-04-16T15:11:13.312Z,33.23
2018-04-16T15:13:40.048Z,33.57
2018-04-16T15:16:06.011Z,30.20
2018-04-16T15:18:32.054Z,30.50
2018-04-16T15:20:58.049Z,30.73
2018-04-16T15:23:24.049Z,28.60
2018-04-16T15:25:50.067Z,29.73
2018-04-16T15:28:16.118Z,28.87
2018-04-16T15:30:42.100Z,29.80
2018-04-16T15:33:08.101Z,27.93
2018-04-16T15:35:34.060Z,30.20
2018-04-16T15:38:00.081Z,28.40
2018-04-16T15:40:26.058Z,28.57
2018-04-16T15:42:52.796Z,29.47
2018-04-16T15:45:18.780Z,28.67
2018-04-16T15:47:44.783Z,29.50
2018-04-16T15:50:10.737Z,31.87
2018-04-16T15:52:37.439Z,31.27
2018-04-16T15:55:03.460Z,31.23
2018-04-16T15:57:29.424Z,32.73
2018-04-16T15:59:55.446Z,33.10
2018-04-16T16:02:21.431Z,32.70
2018-04-16T16:04:48.209Z,33.97
2018-04-16T16:07:14.230Z,35.47
2018-04-16T16:09:40.200Z,32.60
2018-04-16T16:12:06.197Z,33.20
2018-04-16T16:14:32.911Z,32.60
2018-04-16T16:16:58.888Z,32.93
2018-04-16T16:19:25.654Z,35.30
2018-04-16T16:21:51.637Z,32.90
2018-04-16T16:24:17.778Z,34.00
2018-04-16T16:26:43.760Z,33.70
2018-04-16T16:29:09.787Z,33.60
2018-04-16T16:31:36.531Z,35.40
2018-04-16T16:34:03.274Z,36.63
2018-04-16T16:36:29.248Z,33.53
2018-04-16T16:38:55.248Z,37.53
2018-04-16T16:41:21.215Z,33.20
2018-04-16T16:43:47.262Z,31.90
2018-04-16T16:46:13.236Z,29.67
2018-04-16T16:48:39.260Z,32.43
2018-04-16T16:51:05.228Z,31.93
2018-04-16T16:53:31.245Z,33.50
2018-04-16T16:55:57.277Z,33.03
2018-04-16T16:58:23.227Z,32.63
2018-04-16T17:00:49.935Z,32.80
2018-04-16T17:03:15.985Z,33.20
2018-04-16T17:05:41.972Z,33.40
2018-04-16T17:08:07.949Z,32.13
2018-04-16T17:10:33.960Z,31.57
2018-04-16T17:13:00.668Z,32.33
2018-04-16T17:15:26.673Z,31.77
2018-04-16T17:17:52.637Z,28.40
2018-04-16T17:20:18.673Z,30.60
2018-04-16T17:22:44.666Z,28.27
2018-04-16T17:25:10.684Z,28.13
2018-04-16T17:27:37.415Z,30.00
2018-04-16T17:30:03.457Z,31.70
2018-04-16T17:32:29.465Z,28.93
2018-04-16T17:34:55.499Z,32.73
2018-04-16T17:37:21.456Z,28.40
2018-04-16T17:39:47.459Z,31.70
2018-04-16T17:42:13.470Z,31.97
2018-04-16T17:44:40.224Z,32.00
2018-04-16T17:47:06.981Z,30.90
2018-04-16T17:49:33.724Z,32.63
2018-04-16T17:51:59.706Z,30.70
2018-04-16T17:54:25.804Z,30.77
2018-04-16T17:56:53.313Z,33.17
2018-04-16T17:59:19.340Z,33.40
2018-04-16T18:01:45.356Z,35.63
2018-04-16T18:04:12.272Z,33.73
2018-04-16T18:06:38.295Z,36.40
2018-04-16T18:09:04.369Z,36.83
2018-04-16T18:11:30.362Z,35.00
2018-04-16T18:13:56.408Z,35.07
2018-04-16T18:16:22.484Z,35.53
2018-04-16T18:18:48.861Z,38.27
2018-04-16T18:21:15.022Z,36.87
2018-04-16T18:23:41.136Z,43.10
2018-04-16T18:26:07.148Z,40.47
2018-04-16T18:28:33.174Z,39.77
2018-04-16T18:30:59.196Z,41.87
2018-04-16T18:33:25.946Z,43.50
2018-04-16T18:35:51.954Z,42.50
2018-04-16T18:38:18.038Z,42.80
2018-04-16T18:40:44.044Z,42.47
2018-04-16T18:43:10.028Z,45.70
2018-04-16T18:45:36.052Z,42.00
2018-04-16T18:48:02.059Z,43.50
2018-04-16T18:50:28.048Z,41.47
2018-04-16T18:52:54.836Z,45.30
2018-04-16T18:55:20.904Z,45.67
2018-04-16T18:57:46.879Z,46.63
2018-04-16T19:00:13.593Z,42.73
2018-04-16T19:02:39.592Z,42.93
2018-04-16T19:05:05.562Z,49.57
2018-04-16T19:07:31.614Z,45.37
2018-04-16T19:09:57.595Z,43.70
2018-04-16T19:12:23.588Z,48.17
2018-04-16T19:14:49.604Z,47.93
2018-04-16T19:17:15.598Z,50.00
2018-04-16T19:19:42.337Z,49.33
2018-04-16T19:22:09.063Z,46.73
2018-04-16T19:24:35.839Z,48.17
2018-04-16T19:27:09.016Z,50.13
2018-04-16T19:29:35.105Z,46.13
2018-04-16T19:32:01.092Z,47.10
2018-04-16T19:34:33.173Z,49.23
2018-04-16T19:36:59.197Z,49.67
2018-04-16T19:39:25.171Z,50.10
2018-04-16T19:41:58.297Z,52.30
2018-04-16T19:44:24.299Z,49.90
2018-04-16T19:46:50.318Z,48.40
2018-04-16T19:49:22.562Z,52.27
2018-04-16T19:51:48.575Z,55.07
2018-04-16T19:54:15.355Z,56.47
2018-04-16T19:59:42.503Z,47.60
2018-04-16T20:02:14.710Z,49.67
2018-04-16T20:04:40.764Z,52.33
2018-04-16T20:07:06.752Z,47.27
2018-04-16T20:09:32.760Z,49.73
2018-04-16T20:11:58.747Z,46.93
2018-04-16T20:14:24.776Z,46.87
2018-04-16T20:16:50.767Z,50.60
2018-04-16T20:19:16.802Z,50.27
2018-04-16T20:21:42.791Z,52.47
2018-04-16T20:24:08.791Z,59.27
2018-04-16T20:26:34.776Z,59.03
2018-04-16T20:29:01.509Z,52.00
2018-04-16T20:31:27.500Z,51.70
2018-04-16T20:33:53.465Z,51.07
2018-04-16T20:36:19.505Z,61.00
2018-04-16T20:38:45.487Z,56.07
2018-04-16T20:41:12.252Z,59.80
2018-04-16T20:43:38.260Z,61.67
2018-04-16T20:46:04.244Z,56.70
2018-04-16T20:48:30.202Z,49.97
2018-04-16T20:50:56.200Z,49.20
2018-04-16T20:53:22.209Z,55.83
2018-04-16T20:55:48.240Z,47.50
2018-04-16T20:58:14.288Z,45.27
2018-04-16T21:00:41.019Z,45.67
2018-04-16T21:03:07.032Z,47.23
2018-04-16T21:05:33.092Z,46.93
2018-04-16T21:10:30.919Z,45.87
2018-04-16T21:12:56.948Z,53.77
2018-04-16T21:15:22.999Z,49.27
2018-04-16T21:17:49.035Z,50.33
2018-04-16T21:20:15.083Z,47.17
2018-04-16T21:22:41.860Z,42.20
2018-04-16T21:25:07.915Z,40.23
2018-04-16T21:27:33.983Z,39.77
2018-04-16T21:29:59.995Z,41.10
2018-04-16T21:32:26.093Z,41.53
2018-04-16T21:34:52.854Z,39.50
2018-04-16T21:37:19.672Z,36.27
2018-04-16T21:39:45.708Z,33.60
2018-04-16T21:42:11.760Z,37.33
2018-04-16T21:44:37.814Z,33.43
2018-04-16T21:47:04.603Z,35.50
2018-04-16T21:49:30.656Z,36.83
2018-04-16T21:51:56.738Z,32.67
2018-04-16T21:54:23.527Z,37.10
2018-04-16T21:56:49.577Z,32.50
2018-04-16T21:59:15.674Z,32.93
2018-04-16T22:01:42.440Z,35.80
2018-04-16T22:04:09.201Z,35.00
2018-04-16T22:06:35.276Z,37.80
2018-04-16T22:09:01.303Z,34.50
2018-04-16T22:11:27.327Z,34.97
2018-04-16T22:13:53.392Z,33.80
2018-04-16T22:16:19.433Z,35.40
2018-04-16T22:18:45.513Z,33.73
2018-04-16T22:21:12.344Z,34.00
2018-04-16T22:23:39.147Z,32.43
2018-04-16T22:26:05.171Z,34.27
2018-04-16T22:28:31.960Z,39.97
2018-04-16T22:30:57.980Z,34.50
2018-04-16T22:33:24.064Z,34.73
2018-04-16T22:35:50.130Z,36.03
2018-04-16T22:38:16.216Z,32.97
2018-04-16T22:40:42.245Z,36.30
2018-04-16T22:43:08.322Z,35.27
2018-04-16T22:45:34.355Z,33.87
2018-04-16T22:48:00.401Z,34.23
2018-04-16T22:50:26.448Z,33.60
2018-04-16T22:52:52.464Z,34.77
2018-04-16T22:55:18.582Z,35.20
2018-04-16T22:57:44.604Z,39.33
2018-04-16T23:00:10.644Z,35.50
2018-04-16T23:02:36.715Z,33.50
2018-04-16T23:05:02.743Z,33.67
2018-04-16T23:07:28.783Z,37.00
2018-04-16T23:09:54.803Z,38.77
2018-04-16T23:12:20.933Z,39.17
2018-04-16T23:14:47.032Z,35.60
2018-04-16T23:17:13.840Z,33.70
2018-04-16T23:19:39.860Z,33.70
2018-04-16T23:22:05.899Z,34.80
2018-04-16T23:24:31.943Z,36.63
2018-04-16T23:26:57.951Z,36.90
2018-04-16T23:29:24.024Z,38.33
2018-04-16T23:31:50.066Z,37.53
2018-04-16T23:34:16.140Z,38.77
2018-04-16T23:36:42.169Z,38.87
2018-04-16T23:39:08.243Z,39.83
2018-04-16T23:41:34.336Z,34.73
2018-04-16T23:44:00.349Z,40.13
2018-04-16T23:46:26.441Z,36.00
2018-04-16T23:48:53.243Z,35.73
2018-04-16T23:51:19.308Z,36.00
2018-04-16T23:53:45.316Z,38.20
2018-04-16T23:56:11.323Z,34.93
2018-04-16T23:58:38.114Z,35.17
